sensor_id;sensor_type;location;lat;lon;timestamp;pressure;altitude;pressure_sealevel;temperature;humidity
11001;BME280;5553;48.506;8.870;2022-10-19T00:01:36;97771.28;;;10.70;100.00
11001;BME280;5553;48.506;8.870;2022-10-19T00:04:04;97773.44;;;10.83;100.00
11001;BME280;5553;48.506;8.870;2022-10-19T00:06:34;97775.19;;;10.50;100.00
11001;BME280;5553;48.506;8.870;2022-10-19T00:09:05;97767.53;;;10.38;100.00
11001;BME280;5553;48.506;8.870;2022-10-19T00:11:36;97764.63;;;10.50;100.00
11001;BME280;5553;48.506;8.870;2022-10-19T00:14:10;97766.72;;;10.38;100.00
11001;BME280;5553;48.506;8.870;2022-10-19T00:16:39;97762.75;;;10.34;100.00
11001;BME280;5553;48.506;8.870;2022-10-19T00:19:11;97742.75;;;10.23;100.00
11001;BME280;5553;48.506;8.870;2022-10-19T00:21:40;97750.59;;;10.15;100.00
11001;BME280;5553;48.506;8.870;2022-10-19T00:24:08;97752.88;;;10.02;100.00
11001;BME280;5553;48.506;8.870;2022-10-19T00:26:37;97755.75;;;9.90;100.00
11001;BME280;5553;48.506;8.870;2022-10-19T00:29:10;97761.03;;;9.90;100.00
11001;BME280;5553;48.506;8.870;2022-10-19T00:31:39;97768.81;;;9.92;100.00
11001;BME280;5553;48.506;8.870;2022-10-19T00:34:08;97778.88;;;9.96;100.00
11001;BME280;5553;48.506;8.870;2022-10-19T00:36:38;97769.63;;;9.92;100.00
11001;BME280;5553;48.506;8.870;2022-10-19T00:39:09;97775.53;;;9.94;100.00
11001;BME280;5553;48.506;8.870;2022-10-19T00:41:38;97776.91;;;9.99;100.00
11001;BME280;5553;48.506;8.870;2022-10-19T00:47:07;97779.47;;;9.90;100.00
11001;BME280;5553;48.506;8.870;2022-10-19T00:49:38;97788.72;;;9.94;100.00
11001;BME280;5553;48.506;8.870;2022-10-19T00:52:09;97781.81;;;9.93;100.00
11001;BME280;5553;48.506;8.870;2022-10-19T00:54:41;97780.31;;;9.91;100.00
11001;BME280;5553;48.506;8.870;2022-10-19T00:57:10;97787.25;;;9.92;100.00
11001;BME280;5553;48.506;8.870;2022-10-19T00:59:39;97781.00;;;9.93;100.00
11001;BME280;5553;48.506;8.870;2022-10-19T01:02:11;97784.50;;;10.02;100.00
11001;BME280;5553;48.506;8.870;2022-10-19T01:04:44;97788.47;;;10.06;100.00
11001;BME280;5553;48.506;8.870;2022-10-19T01:07:16;97782.09;;;9.82;100.00
11001;BME280;5553;48.506;8.870;2022-10-19T01:09:45;97777.63;;;9.57;100.00
11001;BME280;5553;48.506;8.870;2022-10-19T01:12:22;97785.47;;;9.48;100.00
11001;BME280;5553;48.506;8.870;2022-10-19T01:15:07;97783.56;;;9.59;100.00
11001;BME280;5553;48.506;8.870;2022-10-19T01:17:49;97789.53;;;9.61;100.00
11001;BME280;5553;48.506;8.870;2022-10-19T01:26:23;97826.59;;;9.67;100.00
11001;BME280;5553;48.506;8.870;2022-10-19T01:29:03;97821.78;;;9.37;100.00
11001;BME280;5553;48.506;8.870;2022-10-19T01:31:39;97832.16;;;9.38;100.00
11001;BME280;5553;48.506;8.870;2022-10-19T01:34:14;97843.00;;;9.35;100.00
11001;BME280;5553;48.506;8.870;2022-10-19T01:36:54;97858.63;;;9.55;100.00
11001;BME280;5553;48.506;8.870;2022-10-19T01:39:31;97870.22;;;9.62;100.00
11001;BME280;5553;48.506;8.870;2022-10-19T01:42:08;97882.75;;;9.86;100.00
11001;BME280;5553;48.506;8.870;2022-10-19T01:44:43;97899.25;;;9.88;100.00
11001;BME280;5553;48.506;8.870;2022-10-19T01:47:21;97909.03;;;9.95;100.00
11001;BME280;5553;48.506;8.870;2022-10-19T01:49:54;97919.50;;;9.87;100.00
11001;BME280;5553;48.506;8.870;2022-10-19T01:52:24;97925.50;;;9.97;100.00
11001;BME280;5553;48.506;8.870;2022-10-19T01:54:55;97945.34;;;10.02;100.00
11001;BME280;5553;48.506;8.870;2022-10-19T01:57:28;97945.13;;;9.95;100.00
11001;BME280;5553;48.506;8.870;2022-10-19T01:59:57;97948.38;;;10.15;100.00
11001;BME280;5553;48.506;8.870;2022-10-19T02:02:35;97950.19;;;10.14;100.00
11001;BME280;5553;48.506;8.870;2022-10-19T02:05:07;97955.34;;;10.16;100.00
11001;BME280;5553;48.506;8.870;2022-10-19T02:07:37;97960.66;;;10.24;100.00
11001;BME280;5553;48.506;8.870;2022-10-19T02:10:07;97970.63;;;10.30;100.00
11001;BME280;5553;48.506;8.870;2022-10-19T02:12:36;97980.56;;;10.36;100.00
11001;BME280;5553;48.506;8.870;2022-10-19T02:15:09;97998.72;;;10.39;100.00
11001;BME280;5553;48.506;8.870;2022-10-19T02:17:44;98008.72;;;10.54;100.00
11001;BME280;5553;48.506;8.870;2022-10-19T02:20:14;98015.16;;;10.59;100.00
11001;BME280;5553;48.506;8.870;2022-10-19T02:22:43;98019.59;;;10.51;100.00
11001;BME280;5553;48.506;8.870;2022-10-19T02:25:12;98017.72;;;10.43;100.00
11001;BME280;5553;48.506;8.870;2022-10-19T02:27:41;98024.56;;;10.54;100.00
11001;BME280;5553;48.506;8.870;2022-10-19T02:30:10;98037.59;;;10.55;100.00
11001;BME280;5553;48.506;8.870;2022-10-19T02:32:42;98047.69;;;10.60;100.00
11001;BME280;5553;48.506;8.870;2022-10-19T02:35:12;98051.47;;;10.57;100.00
11001;BME280;5553;48.506;8.870;2022-10-19T02:37:41;98064.50;;;10.59;100.00
11001;BME280;5553;48.506;8.870;2022-10-19T02:40:10;98062.84;;;10.58;100.00
11001;BME280;5553;48.506;8.870;2022-10-19T02:42:42;98070.59;;;10.59;100.00
11001;BME280;5553;48.506;8.870;2022-10-19T02:45:16;98078.69;;;10.58;100.00
11001;BME280;5553;48.506;8.870;2022-10-19T02:47:53;98084.69;;;10.68;100.00
11001;BME280;5553;48.506;8.870;2022-10-19T02:50:22;98096.75;;;10.71;100.00
11001;BME280;5553;48.506;8.870;2022-10-19T02:52:51;98103.84;;;10.70;100.00
11001;BME280;5553;48.506;8.870;2022-10-19T02:55:19;98110.25;;;10.67;100.00
11001;BME280;5553;48.506;8.870;2022-10-19T02:57:48;98114.03;;;10.65;100.00
11001;BME280;5553;48.506;8.870;2022-10-19T03:00:16;98112.09;;;10.67;100.00
11001;BME280;5553;48.506;8.870;2022-10-19T03:02:45;98111.84;;;10.60;100.00
11001;BME280;5553;48.506;8.870;2022-10-19T03:05:16;98121.94;;;10.65;100.00
11001;BME280;5553;48.506;8.870;2022-10-19T03:07:44;98139.66;;;10.73;100.00
11001;BME280;5553;48.506;8.870;2022-10-19T03:10:13;98142.28;;;10.73;100.00
11001;BME280;5553;48.506;8.870;2022-10-19T03:12:41;98136.34;;;10.71;100.00
11001;BME280;5553;48.506;8.870;2022-10-19T03:15:13;98137.19;;;10.71;100.00
11001;BME280;5553;48.506;8.870;2022-10-19T03:17:42;98145.31;;;10.78;100.00
11001;BME280;5553;48.506;8.870;2022-10-19T03:20:11;98151.94;;;10.82;100.00
11001;BME280;5553;48.506;8.870;2022-10-19T03:22:42;98164.25;;;10.91;100.00
11001;BME280;5553;48.506;8.870;2022-10-19T03:25:10;98165.06;;;10.91;100.00
11001;BME280;5553;48.506;8.870;2022-10-19T03:27:38;98167.31;;;10.86;100.00
11001;BME280;5553;48.506;8.870;2022-10-19T03:30:07;98171.16;;;10.92;100.00
11001;BME280;5553;48.506;8.870;2022-10-19T03:32:36;98176.38;;;11.02;100.00
11001;BME280;5553;48.506;8.870;2022-10-19T03:35:05;98173.34;;;10.97;100.00
11001;BME280;5553;48.506;8.870;2022-10-19T03:37:34;98163.94;;;10.94;100.00
11001;BME280;5553;48.506;8.870;2022-10-19T03:40:06;98172.81;;;10.93;100.00
11001;BME280;5553;48.506;8.870;2022-10-19T03:42:34;98179.97;;;11.01;100.00
11001;BME280;5553;48.506;8.870;2022-10-19T03:45:03;98181.44;;;10.95;100.00
11001;BME280;5553;48.506;8.870;2022-10-19T03:47:32;98184.72;;;10.97;100.00
11001;BME280;5553;48.506;8.870;2022-10-19T03:50:00;98183.38;;;10.93;100.00
11001;BME280;5553;48.506;8.870;2022-10-19T03:52:30;98177.56;;;10.89;100.00
11001;BME280;5553;48.506;8.870;2022-10-19T03:54:58;98185.66;;;10.88;100.00
11001;BME280;5553;48.506;8.870;2022-10-19T03:57:29;98192.97;;;10.94;100.00
11001;BME280;5553;48.506;8.870;2022-10-19T03:59:57;98194.63;;;10.95;100.00
11001;BME280;5553;48.506;8.870;2022-10-19T04:02:26;98205.50;;;10.92;100.00
11001;BME280;5553;48.506;8.870;2022-10-19T04:04:54;98198.69;;;10.89;100.00
11001;BME280;5553;48.506;8.870;2022-10-19T04:07:22;98212.44;;;10.93;100.00
11001;BME280;5553;48.506;8.870;2022-10-19T04:09:51;98205.34;;;10.94;100.00
11001;BME280;5553;48.506;8.870;2022-10-19T04:12:19;98211.38;;;10.86;100.00
11001;BME280;5553;48.506;8.870;2022-10-19T04:14:50;98209.94;;;10.91;100.00
11001;BME280;5553;48.506;8.870;2022-10-19T04:17:19;98226.97;;;10.97;100.00
11001;BME280;5553;48.506;8.870;2022-10-19T04:19:47;98217.56;;;10.95;100.00
11001;BME280;5553;48.506;8.870;2022-10-19T04:22:15;98219.22;;;10.96;100.00
11001;BME280;5553;48.506;8.870;2022-10-19T04:24:43;98210.09;;;10.90;100.00
11001;BME280;5553;48.506;8.870;2022-10-19T04:27:12;98215.28;;;11.00;100.00
11001;BME280;5553;48.506;8.870;2022-10-19T04:29:40;98224.44;;;11.05;100.00
11001;BME280;5553;48.506;8.870;2022-10-19T04:32:11;98226.38;;;11.03;100.00
11001;BME280;5553;48.506;8.870;2022-10-19T04:34:39;98230.69;;;11.04;100.00
11001;BME280;5553;48.506;8.870;2022-10-19T04:37:08;98223.38;;;10.98;100.00
11001;BME280;5553;48.506;8.870;2022-10-19T04:39:36;98224.72;;;11.02;100.00
11001;BME280;5553;48.506;8.870;2022-10-19T04:42:07;98219.81;;;11.07;100.00
11001;BME280;5553;48.506;8.870;2022-10-19T04:44:35;98211.75;;;11.09;100.00
11001;BME280;5553;48.506;8.870;2022-10-19T04:47:04;98194.47;;;11.14;100.00
11001;BME280;5553;48.506;8.870;2022-10-19T04:49:35;98196.94;;;11.16;100.00
11001;BME280;5553;48.506;8.870;2022-10-19T04:52:04;98202.25;;;11.24;100.00
11001;BME280;5553;48.506;8.870;2022-10-19T04:54:32;98197.09;;;11.14;100.00
11001;BME280;5553;48.506;8.870;2022-10-19T04:57:00;98183.69;;;11.08;100.00
11001;BME280;5553;48.506;8.870;2022-10-19T04:59:29;98186.72;;;11.21;100.00
11001;BME280;5553;48.506;8.870;2022-10-19T05:01:57;98185.84;;;11.12;100.00
11001;BME280;5553;48.506;8.870;2022-10-19T05:04:25;98176.09;;;11.13;100.00
11001;BME280;5553;48.506;8.870;2022-10-19T05:06:56;98187.06;;;11.18;100.00
11001;BME280;5553;48.506;8.870;2022-10-19T05:09:25;98181.25;;;11.14;100.00
11001;BME280;5553;48.506;8.870;2022-10-19T05:11:53;98175.13;;;11.14;100.00
11001;BME280;5553;48.506;8.870;2022-10-19T05:14:22;98171.22;;;11.18;100.00
11001;BME280;5553;48.506;8.870;2022-10-19T05:16:50;98173.19;;;11.24;100.00
11001;BME280;5553;48.506;8.870;2022-10-19T05:19:19;98180.16;;;11.25;100.00
11001;BME280;5553;48.506;8.870;2022-10-19T05:21:47;98166.44;;;11.22;100.00
11001;BME280;5553;48.506;8.870;2022-10-19T05:24:19;98174.25;;;11.31;100.00
11001;BME280;5553;48.506;8.870;2022-10-19T05:26:47;98163.84;;;11.30;100.00
11001;BME280;5553;48.506;8.870;2022-10-19T05:29:15;98157.56;;;11.31;100.00
11001;BME280;5553;48.506;8.870;2022-10-19T05:31:44;98145.84;;;11.33;100.00
11001;BME280;5553;48.506;8.870;2022-10-19T05:34:12;98151.97;;;11.34;100.00
11001;BME280;5553;48.506;8.870;2022-10-19T05:36:40;98146.38;;;11.37;100.00
11001;BME280;5553;48.506;8.870;2022-10-19T06:02:28;98123.00;;;11.50;100.00
11001;BME280;5553;48.506;8.870;2022-10-19T06:04:56;98116.31;;;11.38;100.00
11001;BME280;5553;48.506;8.870;2022-10-19T06:07:25;98116.69;;;11.43;100.00
11001;BME280;5553;48.506;8.870;2022-10-19T06:09:53;98117.03;;;11.48;100.00
11001;BME280;5553;48.506;8.870;2022-10-19T06:12:21;98110.41;;;11.44;100.00
11001;BME280;5553;48.506;8.870;2022-10-19T06:14:50;98118.59;;;11.59;100.00
11001;BME280;5553;48.506;8.870;2022-10-19T06:17:18;98120.06;;;11.61;100.00
11001;BME280;5553;48.506;8.870;2022-10-19T06:19:49;98117.91;;;11.57;100.00
11001;BME280;5553;48.506;8.870;2022-10-19T06:22:17;98112.72;;;11.47;100.00
11001;BME280;5553;48.506;8.870;2022-10-19T06:24:46;98125.66;;;11.58;100.00
11001;BME280;5553;48.506;8.870;2022-10-19T06:27:15;98129.41;;;11.48;100.00
11001;BME280;5553;48.506;8.870;2022-10-19T06:29:43;98127.97;;;11.53;100.00
11001;BME280;5553;48.506;8.870;2022-10-19T06:32:12;98141.06;;;11.63;100.00
11001;BME280;5553;48.506;8.870;2022-10-19T06:34:40;98137.72;;;11.53;100.00
11001;BME280;5553;48.506;8.870;2022-10-19T06:37:11;98129.91;;;11.51;100.00
11001;BME280;5553;48.506;8.870;2022-10-19T06:39:40;98136.03;;;11.52;100.00
11001;BME280;5553;48.506;8.870;2022-10-19T06:42:08;98144.66;;;11.54;100.00
11001;BME280;5553;48.506;8.870;2022-10-19T06:44:36;98144.97;;;11.51;100.00
11001;BME280;5553;48.506;8.870;2022-10-19T06:47:05;98146.94;;;11.49;100.00
11001;BME280;5553;48.506;8.870;2022-10-19T06:49:33;98145.66;;;11.61;100.00
11001;BME280;5553;48.506;8.870;2022-10-19T06:52:02;98159.63;;;11.79;100.00
11001;BME280;5553;48.506;8.870;2022-10-19T06:54:35;98159.31;;;11.82;100.00
11001;BME280;5553;48.506;8.870;2022-10-19T06:57:03;98168.66;;;11.95;100.00
11001;BME280;5553;48.506;8.870;2022-10-19T06:59:32;98152.75;;;11.87;100.00
11001;BME280;5553;48.506;8.870;2022-10-19T07:02:00;98140.03;;;11.90;100.00
11001;BME280;5553;48.506;8.870;2022-10-19T07:04:29;98140.22;;;11.97;100.00
11001;BME280;5553;48.506;8.870;2022-10-19T07:06:57;98139.88;;;12.00;100.00
11001;BME280;5553;48.506;8.870;2022-10-19T07:09:26;98132.63;;;12.02;100.00
11001;BME280;5553;48.506;8.870;2022-10-19T07:11:57;98113.44;;;12.00;100.00
11001;BME280;5553;48.506;8.870;2022-10-19T07:14:25;98113.25;;;11.85;100.00
11001;BME280;5553;48.506;8.870;2022-10-19T07:16:55;98114.59;;;11.97;100.00
11001;BME280;5553;48.506;8.870;2022-10-19T07:19:25;98115.16;;;12.17;100.00
11001;BME280;5553;48.506;8.870;2022-10-19T07:21:53;98100.56;;;12.05;100.00
11001;BME280;5553;48.506;8.870;2022-10-19T07:24:22;98096.63;;;12.17;100.00
11001;BME280;5553;48.506;8.870;2022-10-19T07:26:50;98096.28;;;12.12;100.00
11001;BME280;5553;48.506;8.870;2022-10-19T07:29:21;98086.53;;;12.13;100.00
11001;BME280;5553;48.506;8.870;2022-10-19T07:31:50;98080.25;;;12.14;100.00
11001;BME280;5553;48.506;8.870;2022-10-19T07:34:18;98069.69;;;12.14;100.00
11001;BME280;5553;48.506;8.870;2022-10-19T07:39:15;98036.41;;;11.95;100.00
11001;BME280;5553;48.506;8.870;2022-10-19T07:41:44;98040.41;;;12.23;100.00
11001;BME280;5553;48.506;8.870;2022-10-19T07:44:13;98041.06;;;12.33;100.00
11001;BME280;5553;48.506;8.870;2022-10-19T07:46:44;98029.50;;;12.35;100.00
11001;BME280;5553;48.506;8.870;2022-10-19T07:49:14;98006.84;;;12.32;100.00
11001;BME280;5553;48.506;8.870;2022-10-19T07:51:44;97992.44;;;12.26;100.00
11001;BME280;5553;48.506;8.870;2022-10-19T07:54:13;98002.38;;;12.32;100.00
11001;BME280;5553;48.506;8.870;2022-10-19T07:56:42;97994.09;;;12.19;100.00
11001;BME280;5553;48.506;8.870;2022-10-19T07:59:10;97979.06;;;12.28;100.00
11001;BME280;5553;48.506;8.870;2022-10-19T08:01:43;97978.91;;;12.38;100.00
11001;BME280;5553;48.506;8.870;2022-10-19T08:06:40;97977.22;;;12.37;100.00
11001;BME280;5553;48.506;8.870;2022-10-19T08:09:09;97964.13;;;12.43;100.00
11001;BME280;5553;48.506;8.870;2022-10-19T08:11:37;97967.78;;;12.42;100.00
11001;BME280;5553;48.506;8.870;2022-10-19T08:14:06;97966.28;;;12.40;100.00
11001;BME280;5553;48.506;8.870;2022-10-19T08:16:35;97950.59;;;12.38;100.00
11001;BME280;5553;48.506;8.870;2022-10-19T08:19:09;97951.72;;;12.52;100.00
11001;BME280;5553;48.506;8.870;2022-10-19T08:21:40;97951.72;;;12.52;100.00
11001;BME280;5553;48.506;8.870;2022-10-19T08:24:10;97948.19;;;12.68;100.00
11001;BME280;5553;48.506;8.870;2022-10-19T08:26:39;97971.13;;;14.16;100.00
11001;BME280;5553;48.506;8.870;2022-10-19T08:29:10;97869.44;;;15.84;100.00
11001;BME280;5553;48.506;8.870;2022-10-19T08:31:39;97651.88;;;16.27;100.00
11001;BME280;5553;48.506;8.870;2022-10-19T08:34:12;97579.84;;;13.68;100.00
11001;BME280;5553;48.506;8.870;2022-10-19T08:36:40;97582.75;;;13.14;100.00
11001;BME280;5553;48.506;8.870;2022-10-19T08:39:10;97590.66;;;12.99;100.00
11001;BME280;5553;48.506;8.870;2022-10-19T08:41:59;97612.50;;;13.01;100.00
11001;BME280;5553;48.506;8.870;2022-10-19T08:44:52;97616.16;;;13.00;100.00
11001;BME280;5553;48.506;8.870;2022-10-19T08:47:34;97626.41;;;13.03;100.00
11001;BME280;5553;48.506;8.870;2022-10-19T08:50:16;97650.59;;;13.00;100.00
11001;BME280;5553;48.506;8.870;2022-10-19T08:52:49;97638.25;;;12.92;100.00
11001;BME280;5553;48.506;8.870;2022-10-19T08:55:28;97625.25;;;12.83;100.00
11001;BME280;5553;48.506;8.870;2022-10-19T08:58:12;97629.09;;;12.95;100.00
11001;BME280;5553;48.506;8.870;2022-10-19T09:00:52;97631.94;;;12.93;100.00
11001;BME280;5553;48.506;8.870;2022-10-19T09:03:24;97624.25;;;12.84;100.00
11001;BME280;5553;48.506;8.870;2022-10-19T09:06:06;97625.19;;;12.91;100.00
11001;BME280;5553;48.506;8.870;2022-10-19T09:08:44;97618.72;;;12.93;100.00
11001;BME280;5553;48.506;8.870;2022-10-19T09:11:15;97626.00;;;12.91;100.00
11001;BME280;5553;48.506;8.870;2022-10-19T09:13:48;97613.34;;;12.78;100.00
11001;BME280;5553;48.506;8.870;2022-10-19T09:16:18;97622.53;;;12.91;100.00
11001;BME280;5553;48.506;8.870;2022-10-19T09:18:46;97616.84;;;12.79;100.00
11001;BME280;5553;48.506;8.870;2022-10-19T09:21:19;97612.25;;;12.96;100.00
11001;BME280;5553;48.506;8.870;2022-10-19T09:23:54;97607.06;;;12.79;100.00
11001;BME280;5553;48.506;8.870;2022-10-19T09:26:28;97600.31;;;12.77;100.00
11001;BME280;5553;48.506;8.870;2022-10-19T09:29:02;97585.13;;;12.71;100.00
11001;BME280;5553;48.506;8.870;2022-10-19T09:31:36;97583.50;;;12.70;100.00
11001;BME280;5553;48.506;8.870;2022-10-19T09:34:12;97587.66;;;12.64;100.00
11001;BME280;5553;48.506;8.870;2022-10-19T09:36:49;97578.16;;;12.93;100.00
11001;BME280;5553;48.506;8.870;2022-10-19T09:39:20;97579.00;;;13.08;100.00
11001;BME280;5553;48.506;8.870;2022-10-19T09:41:51;97569.41;;;13.07;100.00
11001;BME280;5553;48.506;8.870;2022-10-19T09:44:21;97556.28;;;13.28;100.00
11001;BME280;5553;48.506;8.870;2022-10-19T09:46:54;97549.03;;;13.22;100.00
11001;BME280;5553;48.506;8.870;2022-10-19T09:49:38;97537.72;;;13.28;100.00
11001;BME280;5553;48.506;8.870;2022-10-19T09:52:28;97526.28;;;13.13;100.00
11001;BME280;5553;48.506;8.870;2022-10-19T09:55:01;97519.88;;;13.22;100.00
11001;BME280;5553;48.506;8.870;2022-10-19T09:57:31;97511.97;;;13.37;100.00
11001;BME280;5553;48.506;8.870;2022-10-19T09:59:59;97501.25;;;13.45;100.00
11001;BME280;5553;48.506;8.870;2022-10-19T10:02:29;97494.41;;;13.21;100.00
11001;BME280;5553;48.506;8.870;2022-10-19T10:05:03;97490.69;;;13.31;100.00
11001;BME280;5553;48.506;8.870;2022-10-19T10:07:37;97480.09;;;13.31;100.00
11001;BME280;5553;48.506;8.870;2022-10-19T10:10:18;97469.66;;;13.29;100.00
11001;BME280;5553;48.506;8.870;2022-10-19T10:12:47;97462.59;;;13.36;100.00
11001;BME280;5553;48.506;8.870;2022-10-19T10:15:18;97468.53;;;13.23;100.00
11001;BME280;5553;48.506;8.870;2022-10-19T10:17:49;97444.56;;;13.46;100.00
11001;BME280;5553;48.506;8.870;2022-10-19T10:20:22;97454.94;;;13.12;100.00
11001;BME280;5553;48.506;8.870;2022-10-19T10:22:58;97447.19;;;13.25;100.00
11001;BME280;5553;48.506;8.870;2022-10-19T10:25:29;97439.19;;;13.40;100.00
11001;BME280;5553;48.506;8.870;2022-10-19T10:28:00;97427.91;;;13.52;100.00
11001;BME280;5553;48.506;8.870;2022-10-19T10:30:32;97409.25;;;13.61;100.00
11001;BME280;5553;48.506;8.870;2022-10-19T10:33:02;97404.41;;;13.86;100.00
11001;BME280;5553;48.506;8.870;2022-10-19T10:35:33;97394.75;;;13.78;100.00
11001;BME280;5553;48.506;8.870;2022-10-19T10:38:07;97380.50;;;14.07;100.00
11001;BME280;5553;48.506;8.870;2022-10-19T10:40:37;97369.59;;;14.23;100.00
11001;BME280;5553;48.506;8.870;2022-10-19T10:43:08;97356.59;;;14.07;100.00
11001;BME280;5553;48.506;8.870;2022-10-19T10:45:42;97351.00;;;14.23;100.00
11001;BME280;5553;48.506;8.870;2022-10-19T10:48:19;97348.19;;;14.32;100.00
11001;BME280;5553;48.506;8.870;2022-10-19T10:50:50;97348.16;;;14.53;100.00
11001;BME280;5553;48.506;8.870;2022-10-19T10:53:37;97326.84;;;14.81;100.00
11001;BME280;5553;48.506;8.870;2022-10-19T10:56:20;97323.63;;;14.99;100.00
11001;BME280;5553;48.506;8.870;2022-10-19T10:58:54;97318.00;;;15.29;100.00
11001;BME280;5553;48.506;8.870;2022-10-19T11:01:27;97309.63;;;15.45;100.00
11001;BME280;5553;48.506;8.870;2022-10-19T11:04:00;97301.66;;;15.52;100.00
11001;BME280;5553;48.506;8.870;2022-10-19T11:06:33;97295.13;;;15.61;100.00
11001;BME280;5553;48.506;8.870;2022-10-19T11:09:10;97286.53;;;16.05;100.00
11001;BME280;5553;48.506;8.870;2022-10-19T11:11:44;97287.16;;;16.07;100.00
11001;BME280;5553;48.506;8.870;2022-10-19T11:14:27;97279.19;;;15.94;100.00
11001;BME280;5553;48.506;8.870;2022-10-19T11:17:01;97273.03;;;16.00;100.00
11001;BME280;5553;48.506;8.870;2022-10-19T11:19:35;97273.84;;;16.07;100.00
11001;BME280;5553;48.506;8.870;2022-10-19T11:22:13;97277.56;;;15.93;100.00
11001;BME280;5553;48.506;8.870;2022-10-19T11:24:58;97265.66;;;15.89;100.00
11001;BME280;5553;48.506;8.870;2022-10-19T11:27:40;97267.72;;;16.00;100.00
11001;BME280;5553;48.506;8.870;2022-10-19T11:30:12;97255.84;;;15.90;100.00
11001;BME280;5553;48.506;8.870;2022-10-19T11:32:49;97242.75;;;15.88;100.00
11001;BME280;5553;48.506;8.870;2022-10-19T11:35:34;97242.97;;;15.93;100.00
11001;BME280;5553;48.506;8.870;2022-10-19T11:38:19;97241.94;;;15.94;100.00
11001;BME280;5553;48.506;8.870;2022-10-19T17:41:21;97013.63;;;13.59;100.00
11001;BME280;5553;48.506;8.870;2022-10-19T17:43:51;97025.44;;;13.56;100.00
11001;BME280;5553;48.506;8.870;2022-10-19T17:46:21;97025.84;;;13.60;100.00
11001;BME280;5553;48.506;8.870;2022-10-19T17:48:50;97034.00;;;13.58;100.00
11001;BME280;5553;48.506;8.870;2022-10-19T17:51:20;97024.59;;;13.56;100.00
11001;BME280;5553;48.506;8.870;2022-10-19T17:53:49;97041.16;;;13.58;100.00
11001;BME280;5553;48.506;8.870;2022-10-19T17:56:21;97036.25;;;13.55;100.00
11001;BME280;5553;48.506;8.870;2022-10-19T17:58:50;97031.94;;;13.54;100.00
11001;BME280;5553;48.506;8.870;2022-10-19T18:01:19;97032.34;;;13.57;100.00
11001;BME280;5553;48.506;8.870;2022-10-19T18:03:48;97027.22;;;13.49;100.00
11001;BME280;5553;48.506;8.870;2022-10-19T18:06:18;97030.25;;;13.39;100.00
11001;BME280;5553;48.506;8.870;2022-10-19T18:08:50;97033.66;;;13.33;100.00
11001;BME280;5553;48.506;8.870;2022-10-19T18:11:22;97043.28;;;13.34;100.00
11001;BME280;5553;48.506;8.870;2022-10-19T18:13:53;97040.22;;;13.37;100.00
11001;BME280;5553;48.506;8.870;2022-10-19T18:16:24;97041.44;;;13.35;100.00
11001;BME280;5553;48.506;8.870;2022-10-19T18:18:55;97042.47;;;13.34;100.00
11001;BME280;5553;48.506;8.870;2022-10-19T18:21:25;97035.50;;;13.33;100.00
11001;BME280;5553;48.506;8.870;2022-10-19T18:23:55;97035.47;;;13.26;100.00
11001;BME280;5553;48.506;8.870;2022-10-19T18:26:29;97036.81;;;13.15;100.00
11001;BME280;5553;48.506;8.870;2022-10-19T18:29:00;97038.84;;;13.13;100.00
11001;BME280;5553;48.506;8.870;2022-10-19T18:31:30;97042.31;;;13.14;100.00
11001;BME280;5553;48.506;8.870;2022-10-19T18:34:00;97043.56;;;13.18;100.00
11001;BME280;5553;48.506;8.870;2022-10-19T18:36:30;97030.31;;;13.18;100.00
11001;BME280;5553;48.506;8.870;2022-10-19T18:39:00;97037.81;;;13.14;100.00
11001;BME280;5553;48.506;8.870;2022-10-19T18:41:31;97030.91;;;13.13;100.00
11001;BME280;5553;48.506;8.870;2022-10-19T18:44:01;97028.03;;;13.15;100.00
11001;BME280;5553;48.506;8.870;2022-10-19T18:46:32;97024.53;;;13.08;100.00
11001;BME280;5553;48.506;8.870;2022-10-19T18:49:01;97022.69;;;13.08;100.00
11001;BME280;5553;48.506;8.870;2022-10-19T18:51:31;97022.31;;;13.11;100.00
11001;BME280;5553;48.506;8.870;2022-10-19T18:53:59;97016.81;;;13.13;100.00
11001;BME280;5553;48.506;8.870;2022-10-19T18:56:28;97012.34;;;13.13;100.00
11001;BME280;5553;48.506;8.870;2022-10-19T18:59:00;97013.78;;;13.16;100.00
11001;BME280;5553;48.506;8.870;2022-10-19T19:01:28;97012.56;;;13.18;100.00
11001;BME280;5553;48.506;8.870;2022-10-19T19:03:58;97012.53;;;13.12;100.00
11001;BME280;5553;48.506;8.870;2022-10-19T19:06:31;97017.31;;;12.95;100.00
11001;BME280;5553;48.506;8.870;2022-10-19T19:09:04;97022.78;;;12.87;100.00
11001;BME280;5553;48.506;8.870;2022-10-19T19:11:34;97034.44;;;12.92;100.00
11001;BME280;5553;48.506;8.870;2022-10-19T19:14:10;97022.22;;;12.98;100.00
11001;BME280;5553;48.506;8.870;2022-10-19T19:16:41;97020.97;;;12.94;100.00
11001;BME280;5553;48.506;8.870;2022-10-19T19:19:10;97015.66;;;12.87;100.00
11001;BME280;5553;48.506;8.870;2022-10-19T19:21:39;97017.84;;;12.84;100.00
11001;BME280;5553;48.506;8.870;2022-10-19T19:24:10;97016.22;;;12.83;100.00
11001;BME280;5553;48.506;8.870;2022-10-19T19:26:41;96998.41;;;12.70;100.00
11001;BME280;5553;48.506;8.870;2022-10-19T19:29:12;97003.28;;;12.66;100.00
11001;BME280;5553;48.506;8.870;2022-10-19T19:31:41;97003.81;;;12.55;100.00
11001;BME280;5553;48.506;8.870;2022-10-19T19:34:09;97001.13;;;12.48;100.00
11001;BME280;5553;48.506;8.870;2022-10-19T19:36:38;97002.63;;;12.36;100.00
11001;BME280;5553;48.506;8.870;2022-10-19T19:39:12;96998.47;;;12.27;100.00
11001;BME280;5553;48.506;8.870;2022-10-19T19:41:40;96999.63;;;12.18;100.00
11001;BME280;5553;48.506;8.870;2022-10-19T19:44:08;96996.66;;;12.06;100.00
11001;BME280;5553;48.506;8.870;2022-10-19T19:46:39;96997.97;;;11.95;100.00
11001;BME280;5553;48.506;8.870;2022-10-19T19:49:08;96996.88;;;11.90;100.00
11001;BME280;5553;48.506;8.870;2022-10-19T19:51:36;97004.66;;;11.91;100.00
11001;BME280;5553;48.506;8.870;2022-10-19T19:54:05;96996.09;;;11.74;100.00
11001;BME280;5553;48.506;8.870;2022-10-19T19:56:33;97002.56;;;11.72;100.00
11001;BME280;5553;48.506;8.870;2022-10-19T19:59:01;97009.53;;;11.58;100.00